createdAt,value
2019-05-30T00:00:43.415Z,101825.32
2019-05-30T00:03:14.277Z,101821.13
2019-05-30T00:05:44.847Z,101818.28
2019-05-30T00:08:15.513Z,101822.11
2019-05-30T00:10:46.196Z,101825.54
2019-05-30T00:13:16.867Z,101828.38
2019-05-30T00:15:47.849Z,101826.06
2019-05-30T00:18:18.542Z,101830.02
2019-05-30T00:20:49.223Z,101828.31
2019-05-30T00:23:19.761Z,101834.50
2019-05-30T00:25:50.437Z,101837.34
2019-05-30T00:28:21.127Z,101836.84
2019-05-30T00:30:51.748Z,101838.45
2019-05-30T00:33:22.310Z,101844.36
2019-05-30T00:35:52.929Z,101841.53
2019-05-30T00:38:23.650Z,101842.27
2019-05-30T00:40:55.773Z,101844.73
2019-05-30T00:43:26.482Z,101842.14
2019-05-30T00:45:57.940Z,101850.28
2019-05-30T00:48:28.540Z,101846.95
2019-05-30T00:51:00.222Z,101850.40
2019-05-30T00:53:31.047Z,101853.34
2019-05-30T00:56:03.013Z,101849.05
2019-05-30T00:58:33.756Z,101846.83
2019-05-30T01:01:05.180Z,101850.64
2019-05-30T01:03:36.016Z,101851.14
2019-05-30T01:06:07.284Z,101849.78
2019-05-30T01:08:37.944Z,101840.30
2019-05-30T01:11:09.435Z,101842.52
2019-05-30T01:13:40.105Z,101836.63
2019-05-30T01:16:10.919Z,101842.15
2019-05-30T01:18:41.506Z,101839.55
2019-05-30T01:21:12.064Z,101832.67
2019-05-30T01:23:45.426Z,101837.48
2019-05-30T01:26:16.083Z,101837.23
2019-05-30T01:28:46.654Z,101832.78
2019-05-30T01:31:17.480Z,101831.70
2019-05-30T01:33:48.052Z,101828.23
2019-05-30T01:36:18.833Z,101828.00
2019-05-30T01:38:50.615Z,101829.72
2019-05-30T01:41:21.334Z,101835.13
2019-05-30T01:43:51.905Z,101836.31
2019-05-30T01:46:22.642Z,101833.59
2019-05-30T01:48:54.388Z,101836.54
2019-05-30T01:51:25.098Z,101835.66
2019-05-30T01:53:55.726Z,101840.95
2019-05-30T01:56:26.489Z,101844.87
2019-05-30T01:58:58.550Z,101843.78
2019-05-30T02:01:29.614Z,101841.28
2019-05-30T02:04:01.353Z,101843.37
2019-05-30T02:06:32.488Z,101841.53
2019-05-30T02:09:03.385Z,101841.78
2019-05-30T02:11:35.710Z,101835.27
2019-05-30T02:14:07.657Z,101836.61
2019-05-30T02:16:38.408Z,101836.71
2019-05-30T02:19:10.522Z,101837.55
2019-05-30T02:21:41.695Z,101844.67
2019-05-30T02:24:12.522Z,101838.08
2019-05-30T02:26:43.347Z,101839.05
2019-05-30T02:29:14.021Z,101843.10
2019-05-30T02:31:45.659Z,101847.05
2019-05-30T02:34:16.413Z,101846.79
2019-05-30T02:36:48.665Z,101843.73
2019-05-30T02:39:19.407Z,101847.53
2019-05-30T02:41:49.969Z,101848.75
2019-05-30T02:44:20.585Z,101858.00
2019-05-30T02:46:53.061Z,101864.05
2019-05-30T02:49:23.958Z,101865.75
2019-05-30T02:51:54.898Z,101865.11
2019-05-30T02:54:25.683Z,101862.33
2019-05-30T02:56:56.656Z,101862.33
2019-05-30T02:59:27.787Z,101868.86
2019-05-30T03:02:01.917Z,101868.77
2019-05-30T03:04:30.987Z,101876.02
2019-05-30T03:07:02.395Z,101874.69
2019-05-30T03:09:34.084Z,101874.78
2019-05-30T03:12:06.953Z,101879.81
2019-05-30T03:14:37.362Z,101882.64
2019-05-30T03:17:10.258Z,101880.05
2019-05-30T03:19:40.451Z,101886.44
2019-05-30T03:22:12.285Z,101885.80
2019-05-30T03:24:45.078Z,101883.50
2019-05-30T03:27:15.709Z,101881.77
2019-05-30T03:29:47.458Z,101891.07
2019-05-30T03:33:00.237Z,101886.38
2019-05-30T03:34:50.970Z,101890.95
2019-05-30T03:37:28.428Z,101889.75
2019-05-30T03:39:54.275Z,101886.15
2019-05-30T03:42:27.007Z,101886.84
2019-05-30T03:44:57.572Z,101885.09
2019-05-30T03:47:31.214Z,101892.19
2019-05-30T03:50:06.253Z,101893.00
2019-05-30T03:52:36.797Z,101886.89
2019-05-30T03:55:11.856Z,101891.37
2019-05-30T03:57:54.861Z,101883.89
2019-05-30T04:00:37.299Z,101883.33
2019-05-30T04:03:13.217Z,101889.03
2019-05-30T04:05:58.255Z,101889.56
2019-05-30T04:08:40.535Z,101888.73
2019-05-30T04:11:16.927Z,101887.64
2019-05-30T04:13:55.503Z,101887.63
2019-05-30T04:16:26.637Z,101895.02
2019-05-30T04:19:00.134Z,101893.84
2019-05-30T04:21:31.171Z,101891.05
2019-05-30T04:24:05.132Z,101892.39
2019-05-30T04:26:37.235Z,101895.72
2019-05-30T04:29:09.786Z,101899.41
2019-05-30T04:31:40.939Z,101896.35
2019-05-30T04:34:12.551Z,101894.38
2019-05-30T04:36:45.338Z,101900.79
2019-05-30T04:39:17.156Z,101896.84
2019-05-30T04:41:48.058Z,101899.30
2019-05-30T04:44:20.338Z,101904.59
2019-05-30T04:46:51.370Z,101912.86
2019-05-30T04:49:22.915Z,101914.92
2019-05-30T04:51:53.537Z,101923.05
2019-05-30T04:54:24.344Z,101915.95
2019-05-30T04:56:54.891Z,101921.10
2019-05-30T04:59:25.502Z,101925.42
2019-05-30T05:01:56.606Z,101918.48
2019-05-30T05:04:27.276Z,101920.17
2019-05-30T05:06:57.896Z,101915.00
2019-05-30T05:09:31.603Z,101927.95
2019-05-30T05:12:03.530Z,101928.13
2019-05-30T05:14:34.479Z,101924.61
2019-05-30T05:17:05.231Z,101923.91
2019-05-30T05:19:39.612Z,101924.89
2019-05-30T05:22:12.853Z,101927.66
2019-05-30T05:24:43.775Z,101929.01
2019-05-30T05:27:15.491Z,101925.89
2019-05-30T05:29:46.238Z,101921.22
2019-05-30T05:32:18.250Z,101924.86
2019-05-30T05:34:51.932Z,101934.89
2019-05-30T05:37:21.438Z,101934.97
2019-05-30T05:39:52.152Z,101932.06
2019-05-30T05:42:27.130Z,101935.25
2019-05-30T05:44:55.611Z,101934.21
2019-05-30T05:47:26.275Z,101939.29
2019-05-30T05:49:56.992Z,101938.16
2019-05-30T05:52:27.709Z,101937.75
2019-05-30T05:54:59.412Z,101941.03
2019-05-30T05:57:30.378Z,101944.38
2019-05-30T06:00:01.147Z,101937.55
2019-05-30T06:02:32.025Z,101938.80
2019-05-30T06:05:02.702Z,101942.17
2019-05-30T06:07:33.569Z,101946.26
2019-05-30T06:10:05.786Z,101940.61
2019-05-30T06:12:36.381Z,101942.11
2019-05-30T06:15:07.290Z,101940.44
2019-05-30T06:17:38.946Z,101940.38
2019-05-30T06:20:09.953Z,101946.79
2019-05-30T06:22:41.080Z,101944.32
2019-05-30T06:25:11.848Z,101947.10
2019-05-30T06:27:42.497Z,101950.71
2019-05-30T06:30:13.311Z,101955.27
2019-05-30T06:32:43.977Z,101954.72
2019-05-30T06:35:14.793Z,101952.91
2019-05-30T06:37:45.374Z,101956.16
2019-05-30T06:40:16.110Z,101951.34
2019-05-30T06:42:46.692Z,101952.77
2019-05-30T06:45:18.037Z,101953.32
2019-05-30T06:47:48.683Z,101962.05
2019-05-30T06:50:20.680Z,101961.58
2019-05-30T06:52:54.483Z,101956.66
2019-05-30T06:55:25.240Z,101960.23
2019-05-30T06:57:56.029Z,101963.22
2019-05-30T07:00:28.114Z,101964.96
2019-05-30T07:02:58.912Z,101958.59
2019-05-30T07:05:31.586Z,101958.91
2019-05-30T07:08:01.926Z,101959.38
2019-05-30T07:10:33.141Z,101961.38
2019-05-30T07:13:03.929Z,101960.20
2019-05-30T07:15:34.604Z,101962.87
2019-05-30T07:18:05.279Z,101962.36
2019-05-30T07:20:35.969Z,101959.85
2019-05-30T07:23:06.563Z,101959.77
2019-05-30T07:25:37.236Z,101957.84
2019-05-30T07:28:07.801Z,101949.95
2019-05-30T07:30:38.500Z,101958.94
2019-05-30T07:33:09.206Z,101958.19
2019-05-30T07:35:39.751Z,101956.83
2019-05-30T07:38:11.087Z,101957.17
2019-05-30T07:40:41.667Z,101950.31
2019-05-30T07:43:12.339Z,101961.69
2019-05-30T07:45:48.601Z,101965.58
2019-05-30T07:48:15.374Z,101959.98
2019-05-30T07:50:45.957Z,101958.00
2019-05-30T07:53:16.628Z,101953.19
2019-05-30T07:55:47.196Z,101958.30
2019-05-30T07:58:18.236Z,101956.52
2019-05-30T08:00:48.927Z,101964.41
2019-05-30T08:03:19.608Z,101962.66
2019-05-30T08:05:50.288Z,101966.30
2019-05-30T08:08:21.099Z,101964.09
2019-05-30T08:11:08.051Z,101965.38
2019-05-30T08:13:24.209Z,101957.56
2019-05-30T08:15:54.756Z,101951.55
2019-05-30T08:18:25.469Z,101963.29
2019-05-30T08:20:56.228Z,101967.59
2019-05-30T08:23:27.970Z,101958.13
2019-05-30T08:25:58.566Z,101949.78
2019-05-30T08:28:30.306Z,101956.16
2019-05-30T08:31:00.951Z,101953.91
2019-05-30T08:33:31.533Z,101955.71
2019-05-30T08:36:05.523Z,101947.66
2019-05-30T08:38:35.333Z,101954.12
2019-05-30T08:41:06.129Z,101957.67
2019-05-30T08:43:37.569Z,101947.21
2019-05-30T08:46:09.322Z,101945.81
2019-05-30T08:48:40.874Z,101950.58
2019-05-30T08:51:12.552Z,101949.56
2019-05-30T08:53:43.136Z,101943.80
2019-05-30T08:56:13.699Z,101941.92
2019-05-30T08:58:44.271Z,101944.36
2019-05-30T09:01:14.858Z,101942.01
2019-05-30T09:03:46.286Z,101940.91
2019-05-30T09:06:17.090Z,101943.14
2019-05-30T09:08:47.811Z,101941.08
2019-05-30T09:11:18.582Z,101934.53
2019-05-30T09:13:49.180Z,101929.38
2019-05-30T09:16:19.795Z,101930.28
2019-05-30T09:18:50.459Z,101929.92
2019-05-30T09:21:21.236Z,101931.87
2019-05-30T09:23:51.893Z,101920.76
2019-05-30T09:26:22.716Z,101922.52
2019-05-30T09:28:53.384Z,101920.30
2019-05-30T09:31:24.048Z,101923.81
2019-05-30T09:33:54.643Z,101915.31
2019-05-30T09:36:25.387Z,101919.14
2019-05-30T09:38:55.959Z,101922.55
2019-05-30T09:41:26.527Z,101916.77
2019-05-30T09:43:57.192Z,101915.00
2019-05-30T09:46:27.782Z,101921.66
2019-05-30T09:48:58.387Z,101913.60
2019-05-30T09:51:29.056Z,101908.20
2019-05-30T09:53:59.623Z,101913.12
2019-05-30T09:56:30.324Z,101914.81
2019-05-30T09:59:01.104Z,101917.47
2019-05-30T10:04:52.498Z,101911.06
2019-05-30T10:07:23.220Z,101912.67
2019-05-30T10:09:53.881Z,101908.64
2019-05-30T10:12:24.587Z,101912.53
2019-05-30T10:14:57.010Z,101911.49
2019-05-30T10:17:27.803Z,101900.34
2019-05-30T10:19:58.385Z,101908.13
2019-05-30T10:22:29.055Z,101911.39
2019-05-30T10:24:59.728Z,101906.54
2019-05-30T10:27:30.502Z,101896.06
2019-05-30T10:30:01.107Z,101894.59
2019-05-30T10:32:31.947Z,101899.92
2019-05-30T10:35:02.519Z,101894.03
2019-05-30T10:37:33.375Z,101896.23
2019-05-30T10:40:07.090Z,101891.89
2019-05-30T10:42:37.713Z,101886.81
2019-05-30T10:45:10.270Z,101886.35
2019-05-30T10:47:41.007Z,101888.72
2019-05-30T10:50:12.241Z,101887.80
2019-05-30T10:52:45.524Z,101883.53
2019-05-30T10:55:18.016Z,101878.33
2019-05-30T10:57:49.990Z,101869.62
2019-05-30T11:00:22.913Z,101873.56
2019-05-30T11:02:54.989Z,101871.27
2019-05-30T11:05:25.722Z,101868.80
2019-05-30T11:08:06.414Z,101862.03
2019-05-30T11:10:42.242Z,101870.26
2019-05-30T11:13:18.163Z,101870.26
2019-05-30T11:15:49.895Z,101871.63
2019-05-30T11:18:21.143Z,101859.78
2019-05-30T11:20:52.314Z,101864.11
2019-05-30T11:23:22.998Z,101859.73
2019-05-30T11:25:54.689Z,101858.02
2019-05-30T11:28:25.360Z,101851.58
2019-05-30T11:30:57.479Z,101849.48
2019-05-30T11:33:28.051Z,101840.45
2019-05-30T11:35:59.261Z,101844.77
2019-05-30T11:38:30.023Z,101831.06
2019-05-30T11:41:00.673Z,101830.75
2019-05-30T11:43:31.349Z,101830.80
2019-05-30T11:46:02.071Z,101821.70
2019-05-30T11:48:32.739Z,101821.23
2019-05-30T11:51:03.322Z,101816.25
2019-05-30T11:53:33.917Z,101821.88
2019-05-30T11:56:04.709Z,101811.12
2019-05-30T11:58:35.305Z,101811.12
2019-05-30T12:01:06.012Z,101817.41
2019-05-30T12:03:37.006Z,101811.54
2019-05-30T12:06:07.654Z,101807.78
2019-05-30T12:08:39.408Z,101806.03
2019-05-30T12:11:09.983Z,101803.69
2019-05-30T12:13:41.006Z,101800.80
2019-05-30T12:16:11.505Z,101802.20
2019-05-30T12:18:42.218Z,101798.13
2019-05-30T12:21:12.891Z,101791.06
2019-05-30T12:23:43.641Z,101795.11
2019-05-30T12:26:14.216Z,101786.98
2019-05-30T12:28:45.937Z,101792.27
2019-05-30T12:31:16.545Z,101779.09
2019-05-30T12:33:47.108Z,101777.61
2019-05-30T12:36:17.809Z,101767.27
2019-05-30T12:38:48.494Z,101767.27
2019-05-30T12:41:19.274Z,101764.34
2019-05-30T12:43:49.963Z,101764.34
2019-05-30T12:46:20.744Z,101760.20
2019-05-30T12:48:51.645Z,101748.98
2019-05-30T12:51:22.394Z,101748.98
2019-05-30T12:53:54.305Z,101766.70
2019-05-30T12:56:25.110Z,101759.58
2019-05-30T12:58:56.580Z,101760.69
2019-05-30T13:01:27.645Z,101760.69
2019-05-30T13:03:58.920Z,101753.15
2019-05-30T13:06:30.289Z,101737.55
2019-05-30T13:09:01.207Z,101739.17
2019-05-30T13:11:33.790Z,101739.17
2019-05-30T13:14:04.646Z,101746.20
2019-05-30T13:16:35.215Z,101740.55
2019-05-30T13:19:06.429Z,101742.31
2019-05-30T13:21:38.131Z,101735.70
2019-05-30T13:24:10.464Z,101748.94
2019-05-30T13:26:41.151Z,101746.83
2019-05-30T13:29:11.825Z,101741.73
2019-05-30T13:31:42.820Z,101744.56
2019-05-30T13:34:13.490Z,101731.59
2019-05-30T13:36:44.078Z,101725.28
2019-05-30T13:39:14.658Z,101725.28
2019-05-30T13:41:45.261Z,101750.56
2019-05-30T13:44:15.934Z,101723.27
2019-05-30T13:46:46.520Z,101724.55
2019-05-30T13:49:17.183Z,101713.25
2019-05-30T13:51:47.838Z,101715.95
2019-05-30T13:54:18.561Z,101729.44
2019-05-30T13:56:49.126Z,101723.71
2019-05-30T13:59:19.967Z,101722.16
2019-05-30T14:01:50.551Z,101716.55
2019-05-30T14:04:21.234Z,101716.07
2019-05-30T14:06:52.011Z,101716.59
2019-05-30T14:09:22.896Z,101709.52
2019-05-30T14:11:53.682Z,101712.00
2019-05-30T14:14:24.419Z,101713.04
2019-05-30T14:16:54.998Z,101708.74
2019-05-30T14:19:25.693Z,101714.75
2019-05-30T14:21:56.376Z,101712.60
2019-05-30T14:24:28.620Z,101707.52
2019-05-30T14:26:59.466Z,101714.39
2019-05-30T14:29:30.445Z,101718.88
2019-05-30T14:32:02.282Z,101709.78
2019-05-30T14:34:33.149Z,101703.22
2019-05-30T14:37:04.883Z,101703.22
2019-05-30T14:39:35.698Z,101656.13
2019-05-30T14:42:07.078Z,101685.11
2019-05-30T14:44:37.648Z,101702.01
2019-05-30T14:47:08.721Z,101700.59
2019-05-30T14:49:39.289Z,101699.95
2019-05-30T14:52:11.752Z,101684.76
2019-05-30T14:54:42.241Z,101701.82
2019-05-30T14:57:13.104Z,101702.96
2019-05-30T14:59:43.797Z,101700.81
2019-05-30T15:02:14.373Z,101707.19
2019-05-30T15:04:45.484Z,101697.09
2019-05-30T15:07:16.473Z,101691.11
2019-05-30T15:09:47.798Z,101703.91
2019-05-30T15:12:18.473Z,101690.39
2019-05-30T15:14:49.191Z,101693.06
2019-05-30T15:17:19.730Z,101693.06
2019-05-30T15:19:50.447Z,101696.30
2019-05-30T15:22:20.998Z,101702.77
2019-05-30T15:24:51.568Z,101691.47
2019-05-30T15:27:22.153Z,101693.83
2019-05-30T15:29:52.851Z,101693.83
2019-05-30T15:32:23.668Z,101688.13
2019-05-30T15:34:54.501Z,101688.13
2019-05-30T15:37:25.099Z,101691.02
2019-05-30T15:39:55.890Z,101686.11
2019-05-30T15:44:55.791Z,101687.78
2019-05-30T15:47:26.483Z,101687.78
2019-05-30T15:49:57.288Z,101686.77
2019-05-30T15:52:27.963Z,101682.88
2019-05-30T15:54:58.713Z,101682.88
2019-05-30T15:57:29.550Z,101682.42
2019-05-30T16:00:00.296Z,101676.13
2019-05-30T16:02:31.105Z,101676.13
2019-05-30T16:05:01.711Z,101677.21
2019-05-30T16:07:32.366Z,101675.15
2019-05-30T16:10:03.708Z,101677.14
2019-05-30T16:12:34.366Z,101678.64
2019-05-30T16:15:08.592Z,101680.42
2019-05-30T16:17:39.165Z,101678.97
2019-05-30T16:20:13.745Z,101669.73
2019-05-30T16:22:46.149Z,101674.77
2019-05-30T16:25:17.757Z,101669.41
2019-05-30T16:27:48.928Z,101675.75
2019-05-30T16:30:24.376Z,101679.94
2019-05-30T16:32:53.971Z,101674.37
2019-05-30T16:35:24.625Z,101669.45
2019-05-30T16:37:55.386Z,101671.89
2019-05-30T16:40:26.690Z,101667.42
2019-05-30T16:42:57.354Z,101665.33
2019-05-30T16:45:28.213Z,101662.30
2019-05-30T16:47:59.386Z,101663.38
2019-05-30T16:50:30.066Z,101665.33
2019-05-30T16:53:00.701Z,101660.54
2019-05-30T16:55:31.384Z,101657.84
2019-05-30T16:58:01.967Z,101657.05
2019-05-30T17:00:32.704Z,101656.31
2019-05-30T17:03:03.478Z,101649.56
2019-05-30T17:05:34.619Z,101643.09
2019-05-30T17:08:05.653Z,101647.36
2019-05-30T17:10:36.523Z,101647.55
2019-05-30T17:13:07.351Z,101646.70
2019-05-30T17:15:38.093Z,101640.88
2019-05-30T17:18:08.962Z,101642.95
2019-05-30T17:20:39.766Z,101639.31
2019-05-30T17:23:10.622Z,101643.30
2019-05-30T17:25:41.492Z,101640.27
2019-05-30T17:28:14.911Z,101637.14
2019-05-30T17:30:45.249Z,101636.62
2019-05-30T17:33:18.240Z,101634.06
2019-05-30T17:35:48.712Z,101637.63
2019-05-30T17:38:20.426Z,101639.47
2019-05-30T17:40:51.041Z,101641.42
2019-05-30T17:43:22.923Z,101641.09
2019-05-30T17:45:55.767Z,101635.69
2019-05-30T17:48:27.634Z,101638.91
2019-05-30T17:50:58.389Z,101642.84
2019-05-30T17:53:30.081Z,101643.33
2019-05-30T17:56:00.742Z,101638.16
2019-05-30T17:58:31.386Z,101642.05
2019-05-30T18:01:02.058Z,101649.16
2019-05-30T18:03:34.165Z,101646.07
2019-05-30T18:06:04.957Z,101650.77
2019-05-30T18:08:35.742Z,101646.87
2019-05-30T18:11:06.642Z,101647.70
2019-05-30T18:13:40.129Z,101644.32
2019-05-30T18:16:10.946Z,101650.05
2019-05-30T18:18:42.674Z,101643.87
2019-05-30T18:21:13.386Z,101652.12
2019-05-30T18:23:44.873Z,101647.92
2019-05-30T18:26:15.650Z,101650.86
2019-05-30T18:28:46.343Z,101651.09
2019-05-30T18:31:19.160Z,101654.73
2019-05-30T18:33:49.948Z,101656.66
2019-05-30T18:36:24.242Z,101655.16
2019-05-30T18:38:55.390Z,101656.29
2019-05-30T18:41:26.610Z,101657.83
2019-05-30T18:43:57.366Z,101655.91
2019-05-30T18:46:29.143Z,101659.05
2019-05-30T18:48:59.949Z,101650.91
2019-05-30T18:51:30.923Z,101656.90
2019-05-30T18:54:01.606Z,101654.70
2019-05-30T18:56:32.800Z,101659.08
2019-05-30T18:59:04.617Z,101659.81
2019-05-30T19:01:35.647Z,101660.36
2019-05-30T19:04:06.556Z,101659.52
2019-05-30T19:06:37.513Z,101655.91
2019-05-30T19:09:08.924Z,101664.47
2019-05-30T19:11:39.770Z,101664.96
2019-05-30T19:14:11.030Z,101662.73
2019-05-30T19:16:43.980Z,101663.23
2019-05-30T19:19:14.563Z,101660.45
2019-05-30T19:21:45.379Z,101656.31
2019-05-30T19:24:16.041Z,101662.64
2019-05-30T19:26:46.622Z,101666.54
2019-05-30T19:29:17.441Z,101664.94
2019-05-30T19:31:48.717Z,101663.89
2019-05-30T19:34:19.331Z,101668.45
2019-05-30T19:36:50.636Z,101664.34
2019-05-30T19:39:23.518Z,101663.44
2019-05-30T19:41:57.377Z,101667.68
2019-05-30T19:44:27.731Z,101670.20
2019-05-30T19:46:58.646Z,101674.27
2019-05-30T19:49:30.363Z,101676.80
2019-05-30T19:52:01.156Z,101669.97
2019-05-30T19:54:33.074Z,101670.13
2019-05-30T19:57:04.154Z,101666.38
2019-05-30T19:59:36.274Z,101663.43
2019-05-30T20:02:08.065Z,101665.59
2019-05-30T20:04:38.909Z,101655.50
2019-05-30T20:07:11.367Z,101660.02
2019-05-30T20:09:43.148Z,101662.88
2019-05-30T20:12:14.553Z,101666.30
2019-05-30T20:14:46.105Z,101669.51
2019-05-30T20:17:16.847Z,101671.03
2019-05-30T20:19:48.570Z,101672.69
2019-05-30T20:22:19.335Z,101671.59
2019-05-30T20:24:50.757Z,101665.25
2019-05-30T20:27:23.081Z,101667.63
2019-05-30T20:29:54.150Z,101665.72
2019-05-30T20:32:25.398Z,101666.41
2019-05-30T20:34:57.722Z,101667.74
2019-05-30T20:37:29.189Z,101669.89
2019-05-30T20:39:59.877Z,101669.38
2019-05-30T20:42:30.677Z,101671.09
2019-05-30T20:45:01.422Z,101673.86
2019-05-30T20:47:36.877Z,101666.53
2019-05-30T20:50:09.566Z,101669.42
2019-05-30T20:52:43.320Z,101673.48
2019-05-30T20:55:13.576Z,101671.33
2019-05-30T20:57:44.418Z,101670.00
2019-05-30T21:00:18.068Z,101673.70
2019-05-30T21:02:48.784Z,101674.72
2019-05-30T21:05:19.863Z,101669.53
2019-05-30T21:07:51.969Z,101673.89
2019-05-30T21:10:22.564Z,101673.58
2019-05-30T21:12:54.468Z,101658.53
2019-05-30T21:15:25.212Z,101665.16
2019-05-30T21:17:58.675Z,101663.80
2019-05-30T21:20:30.595Z,101671.43
2019-05-30T21:23:01.681Z,101667.95
2019-05-30T21:25:35.658Z,101664.88
2019-05-30T21:28:04.812Z,101660.73
2019-05-30T21:30:36.697Z,101665.48
2019-05-30T21:33:07.394Z,101657.00
2019-05-30T21:35:39.755Z,101664.52
2019-05-30T21:38:11.560Z,101659.53
2019-05-30T21:40:42.515Z,101658.47
2019-05-30T21:43:14.281Z,101662.25
2019-05-30T21:45:44.986Z,101662.91
2019-05-30T21:48:15.668Z,101662.75
2019-05-30T21:50:47.580Z,101669.56
2019-05-30T21:53:19.858Z,101658.97
2019-05-30T21:55:52.181Z,101660.28
2019-05-30T21:58:22.939Z,101659.06
2019-05-30T22:01:14.806Z,101657.07
2019-05-30T22:03:46.507Z,101656.45
2019-05-30T22:06:19.270Z,101653.28
2019-05-30T22:08:51.516Z,101649.66
2019-05-30T22:11:22.163Z,101652.88
2019-05-30T22:13:52.743Z,101655.56
2019-05-30T22:16:23.484Z,101660.66
2019-05-30T22:18:55.635Z,101657.58
2019-05-30T22:21:26.188Z,101659.80
2019-05-30T22:23:56.761Z,101656.56
2019-05-30T22:26:27.318Z,101659.59
2019-05-30T22:28:57.910Z,101660.50
2019-05-30T22:31:28.488Z,101652.48
2019-05-30T22:33:59.261Z,101658.59
2019-05-30T22:36:29.850Z,101647.28
2019-05-30T22:39:00.543Z,101650.00
2019-05-30T22:41:32.018Z,101656.11
2019-05-30T22:44:03.458Z,101649.19
2019-05-30T22:46:34.244Z,101648.69
2019-05-30T22:49:06.148Z,101648.48
2019-05-30T22:51:36.886Z,101651.56
2019-05-30T22:54:07.635Z,101652.22
2019-05-30T22:56:38.315Z,101648.78
2019-05-30T22:59:09.969Z,101649.14
2019-05-30T23:01:40.705Z,101646.16
2019-05-30T23:04:12.709Z,101649.89
2019-05-30T23:06:43.403Z,101650.33
2019-05-30T23:09:14.286Z,101649.21
2019-05-30T23:11:45.577Z,101655.73
2019-05-30T23:14:16.411Z,101656.64
2019-05-30T23:16:48.210Z,101652.70
2019-05-30T23:19:19.020Z,101649.73
2019-05-30T23:21:51.562Z,101651.45
2019-05-30T23:24:22.208Z,101654.64
2019-05-30T23:26:53.749Z,101647.13
2019-05-30T23:29:24.457Z,101643.74
2019-05-30T23:31:56.175Z,101646.52
2019-05-30T23:34:27.073Z,101643.89
2019-05-30T23:36:58.757Z,101644.84
2019-05-30T23:39:29.357Z,101646.16
2019-05-30T23:41:59.896Z,101648.67
2019-05-30T23:44:30.566Z,101647.31
2019-05-30T23:47:01.134Z,101643.52
2019-05-30T23:49:31.756Z,101640.09
2019-05-30T23:52:03.547Z,101642.25
2019-05-30T23:54:34.124Z,101643.27
2019-05-30T23:57:05.087Z,101636.75
2019-05-30T23:59:35.662Z,101641.88
